首页
METAR-TAF:

METAR-TAF

机场 :

Wekweeti, 西北特區, 加拿大

纬度: 64-11-27N, 经度: 114-04-36W, 海拔: 368米

当前天气观测

该预报发布于31分钟前的00:00 UTC
风速2节,风向多变
温度 -37°C
湿度 59%
气压 1016 hPa
能見度: 14.5公里
天空无云

METAR: CYWE 080000Z AUTO VRB02KT 9SM CLR M37/M42 A3001 RMK ICG SLP234

时间: 17:31 (00:31 UTC)

预报

该预报发布于5小时和53分钟前的18:38 UTC
预报有效从07日的 19点(UTC)到 08日的 02点(UTC)
风速3节,风向多变
能見度: 10公里
天空无云

TAF: CYWE 071838Z 0719/0802 VRB03KT P6SM SKC RMK FCST BASED ON AUTO OBS. NXT FCST WILL BE ISSUED AT 081345Z

超过4000个机场的气象观测和天气预报(METAR&TAF报告)。

可查询的气象台以黄色和红色小点在地图上表示。

将鼠标移到小点上方,可查看气象台名称。

然后点击查看天气观测和预报。

如需切换地图:点击带黑十字的绿色按钮放大地图;点击带横线的绿色按钮缩小地图;或者点击绿色箭头查看邻近地区的地图。


METAR-TAF: